Time;durP1;ratioP1;P1;durP2;ratioP2;P2;SDS_P1;SDS_P2;PMS_P1;PMS_P2;Temp;Humidity;BMP_temperature;BMP_pressure;BME280_temperature;BME280_humidity;BME280_pressure;Samples;Min_cycle;Max_cycle;Signal;HPM_P1;HPM_P2
2022/03/12 00:01:30;;;;;;;17.07;8.60;;;1.40;40.70;;;;;;5074077;28;20232;-69
2022/03/12 00:03:59;;;;;;;18.63;9.53;;;1.30;40.50;;;;;;5071975;28;20205;-69
2022/03/12 00:06:26;;;;;;;15.10;8.93;;;1.30;40.50;;;;;;5062305;28;20213;-69
2022/03/12 00:08:55;;;;;;;19.43;9.80;;;1.30;40.50;;;;;;5056271;28;20204;-69
2022/03/12 00:11:23;;;;;;;15.33;8.87;;;1.20;40.60;;;;;;5059113;28;20245;-69
2022/03/12 00:13:52;;;;;;;16.80;8.77;;;1.20;40.70;;;;;;5056459;28;20202;-69
2022/03/12 00:16:23;;;;;;;16.30;8.47;;;1.20;40.70;;;;;;5056671;28;20295;-69
2022/03/12 00:18:55;;;;;;;18.30;8.63;;;1.20;40.70;;;;;;5064323;28;20208;-68
2022/03/12 00:21:23;;;;;;;17.37;8.63;;;1.20;40.70;;;;;;5056392;28;20226;-69
2022/03/12 00:23:51;;;;;;;16.83;9.40;;;1.20;40.70;;;;;;5065605;28;20259;-69
2022/03/12 00:26:20;;;;;;;17.33;9.20;;;1.10;40.70;;;;;;5055167;28;20562;-69
2022/03/12 00:28:48;;;;;;;16.60;8.47;;;1.10;40.80;;;;;;5055579;28;20270;-68
2022/03/12 00:31:15;;;;;;;18.23;9.27;;;1.10;40.90;;;;;;5069283;28;20308;-69
2022/03/12 00:33:44;;;;;;;16.93;8.80;;;1.10;40.90;;;;;;5070578;28;20214;-69
2022/03/12 00:36:11;;;;;;;14.90;7.70;;;1.10;41.00;;;;;;5055691;28;20221;-69
2022/03/12 00:38:38;;;;;;;15.53;7.97;;;1.10;41.00;;;;;;5060261;28;20208;-70
2022/03/12 00:41:07;;;;;;;16.30;8.10;;;1.10;40.90;;;;;;5068207;28;20308;-70
2022/03/12 00:43:34;;;;;;;13.83;7.30;;;1.10;41.00;;;;;;5071573;28;20224;-69
2022/03/12 00:46:01;;;;;;;18.37;9.00;;;1.10;41.20;;;;;;5075876;28;20203;-69
2022/03/12 00:48:28;;;;;;;15.20;8.53;;;1.10;41.20;;;;;;5061452;28;20212;-69
2022/03/12 00:50:56;;;;;;;15.00;7.77;;;1.10;41.30;;;;;;5070788;28;20209;-69
2022/03/12 00:53:23;;;;;;;16.10;8.60;;;1.00;41.30;;;;;;5070291;28;20202;-69
2022/03/12 00:55:50;;;;;;;14.07;8.60;;;1.00;41.40;;;;;;5064504;28;20550;-69
2022/03/12 00:58:17;;;;;;;19.47;8.07;;;1.00;41.50;;;;;;5055550;28;20213;-69
2022/03/12 01:00:45;;;;;;;12.30;7.33;;;1.00;41.50;;;;;;5056319;28;20701;-69
2022/03/12 01:03:12;;;;;;;14.43;8.20;;;1.00;41.50;;;;;;5069292;28;20209;-70
2022/03/12 01:05:59;;;;;;;18.13;8.60;;;1.00;41.60;;;;;;5063168;28;20289;-70
2022/03/12 01:08:27;;;;;;;15.13;7.70;;;0.90;41.50;;;;;;5062702;28;20235;-69
2022/03/12 01:10:56;;;;;;;14.77;8.03;;;1.00;41.70;;;;;;5064468;28;20264;-69
2022/03/12 01:13:23;;;;;;;13.27;7.30;;;1.00;41.70;;;;;;5075197;28;20204;-69
2022/03/12 01:15:50;;;;;;;15.53;8.10;;;1.00;41.70;;;;;;5055141;28;20351;-68
2022/03/12 01:18:20;;;;;;;13.03;7.97;;;1.00;41.70;;;;;;5063965;28;20205;-69
2022/03/12 01:20:49;;;;;;;14.13;7.07;;;1.00;41.80;;;;;;5063618;28;20255;-69
2022/03/12 01:23:18;;;;;;;12.30;7.23;;;1.00;41.90;;;;;;5064458;28;20209;-69
2022/03/12 01:25:47;;;;;;;13.47;7.33;;;1.00;42.50;;;;;;5060268;28;20202;-69
2022/03/12 01:28:16;;;;;;;12.73;7.50;;;1.00;42.00;;;;;;5054377;28;20253;-69
2022/03/12 01:30:43;;;;;;;10.37;6.43;;;0.90;42.50;;;;;;5057955;28;20204;-69
2022/03/12 01:33:11;;;;;;;10.23;5.60;;;0.90;41.80;;;;;;5065138;28;20237;-69
2022/03/12 01:35:39;;;;;;;11.97;6.37;;;0.90;41.80;;;;;;5068110;28;20312;-69
2022/03/12 01:38:07;;;;;;;14.33;7.10;;;0.90;41.80;;;;;;5059489;28;20233;-69
2022/03/12 01:40:35;;;;;;;11.27;6.03;;;0.90;41.80;;;;;;5072320;28;20233;-69
2022/03/12 01:43:03;;;;;;;12.37;5.70;;;0.90;41.90;;;;;;5063868;28;20210;-69
2022/03/12 01:45:31;;;;;;;11.00;5.63;;;0.80;41.70;;;;;;5060846;28;20219;-69
2022/03/12 01:48:00;;;;;;;12.07;6.37;;;0.80;41.60;;;;;;5059752;28;20565;-69
2022/03/12 01:50:30;;;;;;;12.57;6.13;;;0.90;41.80;;;;;;5053747;28;20245;-69
2022/03/12 01:53:00;;;;;;;9.50;5.87;;;0.90;41.80;;;;;;5060010;28;20305;-69
2022/03/12 01:55:31;;;;;;;9.53;4.83;;;0.80;41.60;;;;;;5070435;28;20221;-69
2022/03/12 01:58:02;;;;;;;12.07;6.30;;;0.80;41.60;;;;;;5071566;28;20682;-69
2022/03/12 02:00:41;;;;;;;8.27;4.57;;;0.80;41.50;;;;;;5059230;28;20232;-69
2022/03/12 02:03:08;;;;;;;11.10;5.57;;;0.80;42.10;;;;;;5060342;28;20240;-70
2022/03/12 02:05:35;;;;;;;8.53;5.07;;;0.80;41.20;;;;;;5057542;28;20224;-69
2022/03/12 02:08:03;;;;;;;9.23;5.37;;;0.80;41.20;;;;;;5063039;28;20288;-69
2022/03/12 02:10:31;;;;;;;8.13;5.10;;;0.70;41.10;;;;;;5058300;28;20300;-69
2022/03/12 02:12:59;;;;;;;9.57;5.60;;;0.70;41.00;;;;;;5058119;28;20217;-69
2022/03/12 02:15:28;;;;;;;8.63;5.20;;;0.70;41.00;;;;;;5057719;28;20560;-70
2022/03/12 02:17:54;;;;;;;8.67;5.53;;;0.70;40.90;;;;;;5064323;28;20209;-69
2022/03/12 02:20:22;;;;;;;9.73;5.40;;;0.70;40.90;;;;;;5067886;28;20667;-69
2022/03/12 02:22:52;;;;;;;9.20;5.00;;;0.70;40.90;;;;;;5062948;28;20669;-69
2022/03/12 02:25:27;;;;;;;9.40;5.27;;;0.70;40.90;;;;;;5063584;28;20588;-69
2022/03/12 02:27:55;;;;;;;9.03;5.87;;;0.60;40.90;;;;;;5058196;28;20202;-69
2022/03/12 02:30:23;;;;;;;9.50;5.53;;;0.60;41.00;;;;;;5057907;28;20283;-69
2022/03/12 02:33:01;;;;;;;10.37;5.87;;;0.60;41.10;;;;;;5057259;28;20236;-69
2022/03/12 02:35:34;;;;;;;9.37;5.10;;;0.60;41.20;;;;;;5057452;28;20233;-69
2022/03/12 02:38:01;;;;;;;9.67;5.53;;;0.60;41.30;;;;;;5067581;28;20658;-69
2022/03/12 02:40:30;;;;;;;7.93;4.47;;;0.60;41.30;;;;;;5067664;28;20307;-69
2022/03/12 02:42:58;;;;;;;8.90;4.77;;;0.50;41.30;;;;;;5066333;28;20209;-70
2022/03/12 02:45:27;;;;;;;5.97;4.50;;;0.60;41.40;;;;;;5071058;28;20201;-69
2022/03/12 02:47:55;;;;;;;11.60;4.50;;;0.50;41.30;;;;;;5064033;28;20212;-69
2022/03/12 02:50:23;;;;;;;6.63;4.20;;;0.50;41.30;;;;;;5062839;28;20210;-69
2022/03/12 02:52:50;;;;;;;7.60;4.47;;;0.50;41.30;;;;;;5068494;28;20217;-69
2022/03/12 02:55:19;;;;;;;6.47;4.10;;;0.50;41.30;;;;;;5070182;28;20240;-69
2022/03/12 02:57:49;;;;;;;5.47;3.50;;;0.50;41.80;;;;;;5062912;28;20746;-69
2022/03/12 03:00:18;;;;;;;5.50;4.20;;;0.50;41.20;;;;;;5061389;28;20220;-69
2022/03/12 03:02:52;;;;;;;7.80;4.53;;;0.60;41.10;;;;;;5074878;28;20213;-68
2022/03/12 03:05:29;;;;;;;5.90;3.57;;;0.60;41.10;;;;;;5063891;28;20662;-69
2022/03/12 03:07:56;;;;;;;6.23;3.73;;;0.50;41.70;;;;;;5060073;28;20621;-69
2022/03/12 03:10:33;;;;;;;6.03;4.13;;;0.50;41.10;;;;;;5059606;28;20283;-69
2022/03/12 03:13:15;;;;;;;7.43;4.63;;;0.50;41.10;;;;;;5056226;28;20216;-69
2022/03/12 03:15:42;;;;;;;8.37;4.40;;;0.50;41.20;;;;;;5063615;28;20773;-69
2022/03/12 03:18:12;;;;;;;6.43;4.37;;;0.50;41.30;;;;;;5068465;28;20275;-69
2022/03/12 03:20:39;;;;;;;7.03;4.23;;;0.60;41.40;;;;;;5056345;28;20714;-68
2022/03/12 03:23:07;;;;;;;8.80;4.53;;;0.50;41.40;;;;;;5066955;28;20276;-69
2022/03/12 03:25:34;;;;;;;5.90;4.30;;;0.40;41.40;;;;;;5059199;28;20202;-69
2022/03/12 03:28:03;;;;;;;8.50;4.70;;;0.40;41.50;;;;;;5069989;28;20615;-68
2022/03/12 03:30:33;;;;;;;7.57;4.37;;;0.40;41.50;;;;;;5059500;28;20210;-69
2022/03/12 03:33:00;;;;;;;10.50;4.93;;;0.40;41.50;;;;;;5058295;28;20629;-69
2022/03/12 03:35:27;;;;;;;8.63;4.53;;;0.40;41.60;;;;;;5073622;28;20325;-70
2022/03/12 03:37:54;;;;;;;7.83;4.47;;;0.40;41.70;;;;;;5070090;28;20197;-69
2022/03/12 03:40:21;;;;;;;9.60;5.03;;;0.40;41.70;;;;;;5054569;28;20261;-69
2022/03/12 03:42:48;;;;;;;7.37;4.27;;;0.40;41.80;;;;;;5062996;28;20562;-69
2022/03/12 03:45:21;;;;;;;12.80;4.50;;;0.40;41.90;;;;;;5067096;28;20209;-69
2022/03/12 03:47:48;;;;;;;9.73;5.47;;;0.40;41.90;;;;;;5054581;28;20744;-69
2022/03/12 03:50:15;;;;;;;9.63;5.10;;;0.40;41.90;;;;;;5079255;28;20725;-69
2022/03/12 03:52:42;;;;;;;11.77;5.80;;;0.30;41.80;;;;;;5071528;28;20205;-69
2022/03/12 03:55:09;;;;;;;10.10;5.50;;;0.30;41.80;;;;;;5070060;28;20205;-69
2022/03/12 03:57:36;;;;;;;11.97;5.73;;;0.30;41.80;;;;;;5060308;28;20213;-69
2022/03/12 04:00:04;;;;;;;9.27;5.40;;;0.30;41.90;;;;;;5061250;28;20231;-69
2022/03/12 04:02:32;;;;;;;11.50;5.90;;;0.30;41.90;;;;;;5071571;28;20598;-69
2022/03/12 04:04:59;;;;;;;11.00;6.10;;;0.30;42.00;;;;;;5056961;28;20201;-69
2022/03/12 04:07:26;;;;;;;10.33;5.93;;;0.40;42.10;;;;;;5055000;28;20214;-70
2022/03/12 04:09:53;;;;;;;9.70;5.47;;;0.30;42.00;;;;;;5068254;28;20220;-70
2022/03/12 04:12:20;;;;;;;10.50;5.93;;;0.40;42.20;;;;;;5060606;28;20206;-68
2022/03/12 04:14:47;;;;;;;10.83;5.67;;;0.40;42.10;;;;;;5064833;28;20268;-69
2022/03/12 04:17:18;;;;;;;8.70;5.60;;;0.40;42.10;;;;;;5055237;28;20394;-68
2022/03/12 04:19:46;;;;;;;10.60;5.40;;;0.40;42.20;;;;;;5054708;28;20566;-69
2022/03/12 04:22:13;;;;;;;12.63;5.13;;;0.30;42.10;;;;;;5067838;28;20233;-69
2022/03/12 04:24:39;;;;;;;9.60;5.07;;;0.30;42.10;;;;;;5064691;28;20237;-68
2022/03/12 04:27:06;;;;;;;9.83;5.30;;;0.40;42.10;;;;;;5054146;28;20616;-69
2022/03/12 04:29:33;;;;;;;7.70;5.40;;;0.40;42.00;;;;;;5053451;28;20259;-69
2022/03/12 04:32:00;;;;;;;8.53;5.27;;;0.30;41.90;;;;;;5053805;28;20245;-69
2022/03/12 04:34:27;;;;;;;6.67;5.03;;;0.30;42.00;;;;;;5062966;28;20245;-68
2022/03/12 04:36:55;;;;;;;8.57;5.13;;;0.40;42.10;;;;;;5052874;28;20233;-70
2022/03/12 04:39:22;;;;;;;9.33;5.77;;;0.40;42.20;;;;;;5063140;28;20286;-69
2022/03/12 04:41:49;;;;;;;12.83;6.13;;;0.40;42.30;;;;;;5055902;28;20881;-69
2022/03/12 04:44:16;;;;;;;9.73;5.77;;;0.40;42.30;;;;;;5056808;28;20646;-69
2022/03/12 04:46:43;;;;;;;11.73;6.53;;;0.40;42.30;;;;;;5070599;28;20204;-69
2022/03/12 04:49:10;;;;;;;9.87;5.97;;;0.30;42.30;;;;;;5069130;28;20255;-69
2022/03/12 04:51:37;;;;;;;11.87;6.40;;;0.30;42.30;;;;;;5073172;28;20216;-69
2022/03/12 04:54:05;;;;;;;11.10;6.30;;;0.30;42.30;;;;;;5071843;28;20197;-69
2022/03/12 04:56:32;;;;;;;15.17;7.73;;;0.30;42.50;;;;;;5071135;28;20319;-69
2022/03/12 04:58:59;;;;;;;13.33;8.27;;;0.30;42.70;;;;;;5073275;28;20268;-68
2022/03/12 05:01:26;;;;;;;12.60;8.27;;;0.30;42.70;;;;;;5072354;28;20205;-69
2022/03/12 05:03:53;;;;;;;16.90;7.77;;;0.30;42.70;;;;;;5066367;28;20211;-70
2022/03/12 05:06:23;;;;;;;14.70;7.77;;;0.30;42.70;;;;;;5070326;28;20300;-69
2022/03/12 05:08:50;;;;;;;15.80;7.63;;;0.30;42.90;;;;;;5054171;28;20204;-69
2022/03/12 05:11:19;;;;;;;13.07;7.67;;;0.20;42.80;;;;;;5064708;28;20216;-69
2022/03/12 05:13:46;;;;;;;16.13;7.20;;;0.20;43.10;;;;;;5068594;28;20205;-69
2022/03/12 05:16:13;;;;;;;12.90;7.60;;;0.20;42.80;;;;;;5067695;28;20225;-69
2022/03/12 05:18:40;;;;;;;14.77;7.93;;;0.20;42.80;;;;;;5067401;28;20212;-69
2022/03/12 05:21:08;;;;;;;13.20;8.00;;;0.20;43.00;;;;;;5066763;28;20256;-68
2022/03/12 05:23:35;;;;;;;11.67;7.03;;;0.20;43.10;;;;;;5067720;28;20205;-69
2022/03/12 05:26:02;;;;;;;14.30;7.63;;;0.20;43.20;;;;;;5062850;28;20216;-69
2022/03/12 05:28:32;;;;;;;13.27;7.80;;;0.20;43.10;;;;;;5073341;28;20269;-70
2022/03/12 05:31:04;;;;;;;14.23;7.83;;;0.30;43.20;;;;;;5070840;28;20569;-70
2022/03/12 05:33:31;;;;;;;12.40;7.73;;;0.30;43.00;;;;;;5060863;28;20198;-70
2022/03/12 05:35:58;;;;;;;12.50;6.77;;;0.30;42.90;;;;;;5067878;28;20231;-70
2022/03/12 05:38:31;;;;;;;13.03;7.10;;;0.30;42.90;;;;;;5067299;28;20205;-69
2022/03/12 05:40:58;;;;;;;12.97;6.90;;;0.30;42.80;;;;;;5068454;28;20577;-69
2022/03/12 05:43:26;;;;;;;11.77;6.73;;;0.30;42.80;;;;;;5063861;28;20292;-69
2022/03/12 05:45:56;;;;;;;15.43;7.20;;;0.30;42.70;;;;;;5068992;28;20205;-69
2022/03/12 05:48:23;;;;;;;11.47;7.00;;;0.30;42.70;;;;;;5070924;28;20206;-69
2022/03/12 05:50:50;;;;;;;10.37;6.57;;;0.30;42.70;;;;;;5062067;28;20212;-69
2022/03/12 05:53:19;;;;;;;15.47;8.07;;;0.40;42.80;;;;;;5073004;28;20281;-69
2022/03/12 05:55:47;;;;;;;10.63;6.77;;;0.40;42.80;;;;;;5063185;28;20600;-69
2022/03/12 05:58:17;;;;;;;12.13;7.57;;;0.40;42.70;;;;;;5073162;28;20666;-70
2022/03/12 06:00:44;;;;;;;13.13;7.20;;;0.40;42.60;;;;;;5061528;28;20528;-70
2022/03/12 06:03:13;;;;;;;14.80;8.03;;;0.40;42.60;;;;;;5061981;28;20208;-69
2022/03/12 06:05:41;;;;;;;15.13;7.97;;;0.50;42.60;;;;;;5061141;28;20588;-69
2022/03/12 06:08:09;;;;;;;13.23;7.77;;;0.50;42.60;;;;;;5058609;28;20210;-70
2022/03/12 06:10:37;;;;;;;14.00;7.87;;;0.50;42.50;;;;;;5075214;28;20206;-69
2022/03/12 06:13:05;;;;;;;15.77;8.37;;;0.50;42.60;;;;;;5064727;28;20569;-70
2022/03/12 06:15:38;;;;;;;13.40;8.10;;;0.60;42.50;;;;;;5062384;28;20218;-70
2022/03/12 06:18:05;;;;;;;13.57;8.37;;;0.60;42.50;;;;;;5062907;28;20260;-70
2022/03/12 06:20:37;;;;;;;19.73;8.97;;;0.70;42.60;;;;;;5058247;28;20314;-70
2022/03/12 06:23:04;;;;;;;17.73;8.83;;;0.70;42.50;;;;;;5063649;28;20296;-69
2022/03/12 06:25:34;;;;;;;21.77;8.50;;;0.70;42.50;;;;;;5066355;28;20205;-69
2022/03/12 06:28:03;;;;;;;12.70;7.73;;;0.70;42.50;;;;;;5061089;28;20224;-69
2022/03/12 06:30:30;;;;;;;15.97;8.50;;;0.80;42.60;;;;;;5059933;28;20213;-69
2022/03/12 06:32:58;;;;;;;16.80;9.87;;;0.90;42.70;;;;;;5072569;28;20646;-69
2022/03/12 06:35:27;;;;;;;15.40;8.67;;;0.90;42.70;;;;;;5075443;28;20204;-69
2022/03/12 06:37:56;;;;;;;17.90;9.10;;;1.00;42.70;;;;;;5064387;28;20256;-69
2022/03/12 06:40:27;;;;;;;16.80;8.73;;;1.00;42.70;;;;;;5070959;28;20233;-68
2022/03/12 06:42:55;;;;;;;14.70;8.87;;;1.20;42.80;;;;;;5064547;28;20213;-70
2022/03/12 06:45:23;;;;;;;14.50;8.10;;;1.30;42.80;;;;;;5064893;28;20209;-68
2022/03/12 06:47:50;;;;;;;15.80;7.90;;;1.40;42.60;;;;;;5073886;28;20240;-70
2022/03/12 06:50:19;;;;;;;13.73;7.53;;;1.60;42.50;;;;;;5075591;28;20324;-69
2022/03/12 06:52:48;;;;;;;14.53;7.67;;;1.60;42.20;;;;;;5067676;28;20247;-69
2022/03/12 06:55:18;;;;;;;12.63;6.63;;;1.70;41.90;;;;;;5062679;28;20210;-69
2022/03/12 06:57:47;;;;;;;12.60;6.70;;;1.80;41.70;;;;;;5060108;28;20237;-69
2022/03/12 07:00:16;;;;;;;14.13;7.50;;;1.90;41.30;;;;;;5070776;28;20292;-69
2022/03/12 07:02:44;;;;;;;11.10;6.63;;;2.00;41.30;;;;;;5061706;28;20289;-69
2022/03/12 07:05:11;;;;;;;12.20;6.37;;;2.10;41.00;;;;;;5062831;28;20237;-69
2022/03/12 07:07:38;;;;;;;14.57;6.30;;;2.10;40.70;;;;;;5056822;28;20238;-69
2022/03/12 07:10:06;;;;;;;10.93;6.33;;;2.20;40.50;;;;;;5068436;28;20221;-70
2022/03/12 07:12:35;;;;;;;13.13;6.50;;;2.30;40.60;;;;;;5067310;28;20205;-69
2022/03/12 07:15:02;;;;;;;11.87;6.67;;;2.40;40.40;;;;;;5066159;28;20679;-69
2022/03/12 07:17:29;;;;;;;15.13;7.57;;;2.60;40.20;;;;;;5058009;28;20247;-70
2022/03/12 07:19:56;;;;;;;14.73;8.20;;;2.70;40.10;;;;;;5064840;28;20213;-69
2022/03/12 07:22:23;;;;;;;14.23;6.93;;;2.80;40.10;;;;;;5057693;28;20264;-69
2022/03/12 07:24:50;;;;;;;14.03;7.40;;;3.00;39.90;;;;;;5070085;28;20249;-69
2022/03/12 07:27:16;;;;;;;15.07;8.17;;;3.10;39.70;;;;;;5068708;28;20285;-69
2022/03/12 07:29:45;;;;;;;14.37;7.57;;;3.30;39.50;;;;;;5056792;28;20206;-69
2022/03/12 07:32:12;;;;;;;13.90;7.10;;;3.40;39.30;;;;;;5064909;28;20624;-70
2022/03/12 07:34:39;;;;;;;12.30;8.03;;;3.60;39.10;;;;;;5069488;28;20268;-70
2022/03/12 07:37:08;;;;;;;13.83;7.60;;;3.80;39.00;;;;;;5070640;28;20221;-69
2022/03/12 07:39:36;;;;;;;13.13;7.23;;;3.90;38.70;;;;;;5069240;28;20233;-69
2022/03/12 07:42:03;;;;;;;16.40;7.43;;;4.00;38.50;;;;;;5063839;28;20209;-70
2022/03/12 07:44:30;;;;;;;14.33;7.67;;;4.20;38.40;;;;;;5070110;28;20304;-70
2022/03/12 07:46:59;;;;;;;12.33;6.40;;;4.40;38.10;;;;;;5073491;28;20567;-70
2022/03/12 07:49:28;;;;;;;11.53;6.70;;;4.50;37.90;;;;;;5070504;28;20209;-70
2022/03/12 07:51:55;;;;;;;15.03;7.13;;;4.70;37.40;;;;;;5058929;28;20214;-69
2022/03/12 07:54:24;;;;;;;12.53;6.77;;;4.70;36.80;;;;;;5058498;28;20229;-69
2022/03/12 07:56:51;;;;;;;12.40;7.17;;;4.80;36.90;;;;;;5071248;28;20271;-68
2022/03/12 07:59:20;;;;;;;13.03;7.40;;;4.80;36.60;;;;;;5063760;28;20268;-71
2022/03/12 08:01:47;;;;;;;13.33;7.30;;;4.80;36.70;;;;;;5061515;28;20206;-71
2022/03/12 08:04:18;;;;;;;12.20;6.73;;;4.80;36.70;;;;;;5073015;28;20289;-72
2022/03/12 08:06:45;;;;;;;11.40;6.63;;;4.90;36.60;;;;;;5073610;28;20259;-70
2022/03/12 08:09:12;;;;;;;16.93;7.23;;;4.90;36.70;;;;;;5066295;28;20209;-74
2022/03/12 08:11:39;;;;;;;10.67;6.60;;;5.00;36.80;;;;;;5072868;28;20519;-70
2022/03/12 08:14:15;;;;;;;11.73;6.83;;;5.20;37.00;;;;;;5057547;28;20237;-71
2022/03/12 08:16:44;;;;;;;10.53;6.53;;;5.50;37.00;;;;;;5054992;28;20225;-71
2022/03/12 08:19:11;;;;;;;10.17;6.63;;;5.70;36.80;;;;;;5059770;28;20237;-70
2022/03/12 08:21:40;;;;;;;9.97;5.93;;;5.90;36.40;;;;;;5061797;28;20291;-70
2022/03/12 08:24:09;;;;;;;14.03;6.50;;;6.00;35.70;;;;;;5071564;28;20212;-73
2022/03/12 08:26:41;;;;;;;10.60;6.10;;;6.10;35.70;;;;;;5067299;28;20654;-71
2022/03/12 08:29:09;;;;;;;12.60;6.10;;;6.30;35.80;;;;;;5059629;28;20300;-70
2022/03/12 08:31:36;;;;;;;11.47;6.30;;;6.50;35.50;;;;;;5066045;28;20210;-69
2022/03/12 08:34:03;;;;;;;9.37;6.07;;;6.60;35.30;;;;;;5074799;28;20212;-70
2022/03/12 08:36:30;;;;;;;14.37;5.73;;;6.80;35.10;;;;;;5070667;28;20220;-73
2022/03/12 08:38:59;;;;;;;10.57;4.93;;;7.10;35.00;;;;;;5073575;28;20215;-72
2022/03/12 08:41:26;;;;;;;8.07;5.13;;;7.20;34.30;;;;;;5062474;28;20240;-72
2022/03/12 08:43:54;;;;;;;9.93;5.47;;;7.30;33.60;;;;;;5062608;28;20293;-71
2022/03/12 08:46:21;;;;;;;9.87;5.73;;;7.40;33.30;;;;;;5058078;28;20237;-72
2022/03/12 08:48:48;;;;;;;7.00;3.83;;;7.40;32.90;;;;;;5068403;28;20201;-73
2022/03/12 08:51:15;;;;;;;8.87;4.80;;;7.40;33.00;;;;;;5065901;28;20275;-71
2022/03/12 08:53:42;;;;;;;10.53;5.53;;;7.50;32.80;;;;;;5070746;28;20213;-71
2022/03/12 08:56:11;;;;;;;12.33;5.00;;;7.60;32.50;;;;;;5075507;28;20622;-71
2022/03/12 08:58:39;;;;;;;6.57;4.60;;;7.60;33.00;;;;;;5071073;28;20275;-72
2022/03/12 09:01:08;;;;;;;8.97;5.10;;;7.70;32.70;;;;;;5064402;28;20360;-71
2022/03/12 09:03:35;;;;;;;7.87;4.43;;;7.90;32.60;;;;;;5062545;28;20210;-69
2022/03/12 09:06:03;;;;;;;7.50;5.20;;;8.10;32.10;;;;;;5069362;28;20232;-71
2022/03/12 09:08:30;;;;;;;9.50;5.60;;;8.30;31.80;;;;;;5071640;28;20205;-70
2022/03/12 09:10:59;;;;;;;12.87;5.73;;;8.50;31.70;;;;;;5071816;28;20208;-71
2022/03/12 09:13:27;;;;;;;7.43;5.17;;;8.70;31.70;;;;;;5062837;28;20209;-70
2022/03/12 09:15:55;;;;;;;8.93;5.43;;;8.80;32.10;;;;;;5067729;28;20232;-71
2022/03/12 09:18:22;;;;;;;8.13;5.40;;;9.10;32.70;;;;;;5066888;28;20218;-69
2022/03/12 09:20:49;;;;;;;9.67;5.93;;;9.90;32.70;;;;;;5073259;28;20224;-71
2022/03/12 09:23:18;;;;;;;8.97;5.60;;;12.40;35.80;;;;;;5065220;28;20201;-68
2022/03/12 09:25:45;;;;;;;10.70;5.67;;;16.70;29.60;;;;;;5070078;28;20706;-72
2022/03/12 09:28:13;;;;;;;10.50;6.60;;;20.60;25.70;;;;;;5070991;28;20287;-69
2022/03/12 09:30:44;;;;;;;9.80;6.63;;;23.60;24.70;;;;;;5064185;28;20274;-70
2022/03/12 09:33:11;;;;;;;8.35;5.70;;;26.20;22.40;;;;;;5066135;28;20204;-73
2022/03/12 09:35:38;;;;;;;8.75;5.93;;;28.30;20.60;;;;;;5065501;28;20202;-72
2022/03/12 09:38:05;;;;;;;9.68;5.80;;;30.00;19.40;;;;;;5072300;28;20222;-72
2022/03/12 09:40:32;;;;;;;10.60;6.22;;;31.10;18.80;;;;;;5062557;28;20238;-71
2022/03/12 09:43:00;;;;;;;9.18;6.07;;;32.40;18.00;;;;;;5064073;28;20650;-73
2022/03/12 09:45:28;;;;;;;8.90;6.40;;;33.10;17.70;;;;;;5062069;28;20205;-71
2022/03/12 09:47:56;;;;;;;8.65;6.32;;;34.30;17.30;;;;;;5063631;28;20225;-71
2022/03/12 09:50:23;;;;;;;8.32;6.30;;;35.30;16.80;;;;;;5067382;28;20288;-71
2022/03/12 09:52:51;;;;;;;9.63;6.18;;;35.80;16.50;;;;;;5067066;28;20609;-72
2022/03/12 09:55:19;;;;;;;7.78;5.90;;;36.60;16.10;;;;;;5061708;28;20729;-72
2022/03/12 09:57:47;;;;;;;6.03;5.43;;;36.60;15.80;;;;;;5060947;28;20237;-71
2022/03/12 10:00:15;;;;;;;7.65;5.47;;;37.10;15.60;;;;;;5065415;28;20224;-73
2022/03/12 10:02:42;;;;;;;7.10;5.82;;;37.50;15.20;;;;;;5053084;28;20288;-72
2022/03/12 10:05:11;;;;;;;7.43;6.10;;;37.80;14.50;;;;;;5066457;28;20267;-72
2022/03/12 10:07:39;;;;;;;7.55;5.47;;;37.30;15.00;;;;;;5067786;28;20204;-72
2022/03/12 10:10:07;;;;;;;7.15;5.65;;;37.40;14.90;;;;;;5061729;28;20206;-73
2022/03/12 10:12:34;;;;;;;6.72;5.20;;;38.10;15.00;;;;;;5060951;28;20205;-72
2022/03/12 10:15:01;;;;;;;5.50;4.90;;;38.80;14.70;;;;;;5060924;28;20206;-71
2022/03/12 10:17:31;;;;;;;5.55;4.93;;;39.60;14.60;;;;;;5068423;28;20307;-72
2022/03/12 10:19:58;;;;;;;5.80;4.85;;;40.00;14.40;;;;;;5067513;28;20205;-71
2022/03/12 10:22:26;;;;;;;5.97;4.97;;;40.60;14.40;;;;;;5074266;28;20249;-72
2022/03/12 10:24:53;;;;;;;6.63;5.43;;;40.80;14.00;;;;;;5068438;28;20293;-72
2022/03/12 10:27:20;;;;;;;9.18;5.85;;;40.50;13.90;;;;;;5069492;28;20202;-71
2022/03/12 10:29:47;;;;;;;7.47;5.97;;;40.40;14.00;;;;;;5065769;28;20202;-68
2022/03/12 10:32:25;;;;;;;6.65;5.53;;;40.80;14.00;;;;;;5072899;28;20650;-68
2022/03/12 10:34:55;;;;;;;6.50;5.38;;;40.80;13.60;;;;;;5067564;28;20612;-69
2022/03/12 10:37:23;;;;;;;5.57;4.97;;;40.90;13.80;;;;;;5070022;28;20227;-68
2022/03/12 10:40:03;;;;;;;7.03;5.10;;;41.00;13.60;;;;;;5063278;28;20241;-68
2022/03/12 10:42:31;;;;;;;8.05;6.15;;;40.90;13.40;;;;;;5055756;28;20486;-69
2022/03/12 10:45:08;;;;;;;6.50;5.10;;;40.70;13.20;;;;;;5066761;28;20210;-67
2022/03/12 10:47:40;;;;;;;6.78;5.72;;;40.30;13.60;;;;;;5070148;28;20262;-68
2022/03/12 10:50:12;;;;;;;7.80;5.97;;;41.10;14.20;;;;;;5058340;28;20313;-67
2022/03/12 10:52:45;;;;;;;7.50;6.07;;;41.80;13.50;;;;;;5055935;28;20233;-67
2022/03/12 10:55:18;;;;;;;7.13;5.50;;;42.80;13.50;;;;;;5058905;28;20757;-68
2022/03/12 10:58:03;;;;;;;6.65;5.18;;;43.70;13.30;;;;;;5074489;28;20228;-68
2022/03/12 11:00:32;;;;;;;7.13;5.20;;;44.30;13.10;;;;;;5060885;28;20472;-68
2022/03/12 11:03:01;;;;;;;7.72;6.10;;;44.70;12.80;;;;;;5062303;28;20897;-69
2022/03/12 11:05:29;;;;;;;7.68;5.95;;;44.10;12.90;;;;;;5057098;28;20244;-69
2022/03/12 11:08:16;;;;;;;7.63;6.00;;;43.10;12.90;;;;;;5064672;28;20229;-71
2022/03/12 11:10:54;;;;;;;7.28;5.68;;;42.70;12.90;;;;;;5072031;28;20216;-69
2022/03/12 11:13:27;;;;;;;7.72;5.80;;;42.30;12.90;;;;;;5064138;28;20201;-69
2022/03/12 11:16:14;;;;;;;5.97;5.05;;;42.60;13.10;;;;;;5060566;28;20205;-70
2022/03/12 11:19:01;;;;;;;6.43;5.10;;;43.70;12.90;;;;;;5065536;28;20284;-69
2022/03/12 11:21:37;;;;;;;8.32;5.60;;;44.70;12.80;;;;;;5067950;28;20246;-67
2022/03/12 11:24:06;;;;;;;9.85;5.72;;;44.50;12.50;;;;;;5065179;28;20199;-68
2022/03/12 11:26:45;;;;;;;6.70;6.00;;;43.10;12.60;;;;;;5068720;28;20238;-68
2022/03/12 11:29:13;;;;;;;7.57;5.30;;;42.00;12.90;;;;;;5073951;28;20209;-67
2022/03/12 11:31:53;;;;;;;6.07;5.47;;;42.30;12.80;;;;;;5074647;28;20244;-67
2022/03/12 11:34:23;;;;;;;9.25;6.18;;;42.20;12.90;;;;;;5074935;28;20232;-68
2022/03/12 11:37:09;;;;;;;8.75;5.45;;;42.10;12.80;;;;;;5073332;28;20271;-70
2022/03/12 11:39:39;;;;;;;5.60;4.95;;;42.60;13.30;;;;;;5060760;28;20244;-71
2022/03/12 11:42:11;;;;;;;8.55;4.85;;;43.30;13.00;;;;;;5065384;28;20196;-69
2022/03/12 11:44:40;;;;;;;10.05;5.93;;;44.40;12.90;;;;;;5058641;28;20635;-71
2022/03/12 11:47:08;;;;;;;5.55;4.55;;;45.10;12.70;;;;;;5058113;28;20735;-71
2022/03/12 11:49:36;;;;;;;6.07;4.80;;;44.60;12.40;;;;;;5063405;28;20204;-71
2022/03/12 11:52:04;;;;;;;6.25;5.05;;;43.90;12.20;;;;;;5056204;28;20201;-70
2022/03/12 11:54:31;;;;;;;13.93;4.80;;;43.10;12.60;;;;;;5054664;28;20484;-71
2022/03/12 11:56:59;;;;;;;5.47;4.72;;;42.30;12.80;;;;;;5071458;28;20204;-71
2022/03/12 11:59:27;;;;;;;6.25;4.95;;;42.30;12.80;;;;;;5063097;28;20221;-71
2022/03/12 12:02:04;;;;;;;6.28;4.53;;;43.20;12.90;;;;;;5063984;28;20228;-70
2022/03/12 12:04:32;;;;;;;6.70;4.63;;;44.40;12.80;;;;;;5064370;28;20771;-71
2022/03/12 12:07:00;;;;;;;5.20;4.65;;;44.80;12.50;;;;;;5072053;28;20284;-72
2022/03/12 12:09:28;;;;;;;7.82;4.47;;;45.40;12.50;;;;;;5071286;28;20205;-69
2022/03/12 12:11:55;;;;;;;5.45;4.03;;;45.40;12.30;;;;;;5071039;28;20236;-69
2022/03/12 12:14:24;;;;;;;5.80;4.40;;;45.10;12.10;;;;;;5065058;28;20696;-70
2022/03/12 12:16:56;;;;;;;4.55;4.10;;;44.70;12.00;;;;;;5067398;28;20642;-70
2022/03/12 12:19:23;;;;;;;4.82;4.22;;;44.10;12.20;;;;;;5068720;28;20216;-68
2022/03/12 12:21:50;;;;;;;6.18;4.93;;;43.20;12.20;;;;;;5068671;28;20244;-70
2022/03/12 12:24:28;;;;;;;5.40;4.45;;;43.00;12.50;;;;;;5058066;28;20239;-69
2022/03/12 12:27:04;;;;;;;5.47;4.93;;;43.30;12.40;;;;;;5065205;28;20236;-69
2022/03/12 12:29:54;;;;;;;8.88;5.07;;;43.40;12.20;;;;;;5068456;28;20612;-69
2022/03/12 12:32:23;;;;;;;5.35;4.28;;;43.30;12.40;;;;;;5064977;28;20211;-70
2022/03/12 12:35:10;;;;;;;6.60;4.90;;;43.00;12.20;;;;;;5054458;28;20263;-69
2022/03/12 12:37:58;;;;;;;5.35;4.80;;;42.50;12.40;;;;;;5057351;28;20290;-69
2022/03/12 12:40:30;;;;;;;5.35;4.55;;;42.20;12.20;;;;;;5049547;28;20248;-70
2022/03/12 12:42:58;;;;;;;6.93;5.35;;;42.10;12.40;;;;;;5060672;28;20197;-70
2022/03/12 12:45:28;;;;;;;7.20;5.13;;;42.00;12.10;;;;;;5057883;28;20296;-69
2022/03/12 12:48:10;;;;;;;5.75;4.90;;;41.00;12.40;;;;;;5059910;28;20209;-69
2022/03/12 12:50:38;;;;;;;5.25;4.55;;;40.40;12.70;;;;;;5059585;28;20205;-71
2022/03/12 12:53:14;;;;;;;7.43;4.70;;;39.70;12.50;;;;;;5068812;28;20292;-70
2022/03/12 12:55:42;;;;;;;5.93;5.00;;;38.70;13.20;;;;;;5072893;28;20669;-68
2022/03/12 12:58:10;;;;;;;5.75;4.70;;;38.20;12.70;;;;;;5071878;28;20221;-69